createdAt,value
2023-04-14T00:01:56.411Z,4.57
2023-04-14T00:04:23.071Z,4.85
2023-04-14T00:06:49.634Z,5.85
2023-04-14T00:09:16.066Z,7.05
2023-04-14T00:11:42.518Z,1.52
2023-04-14T00:14:09.044Z,5.63
2023-04-14T00:16:35.616Z,3.85
2023-04-14T00:19:02.689Z,3.47
2023-04-14T00:21:29.385Z,3.03
2023-04-14T00:23:56.770Z,4.63
2023-04-14T00:26:23.351Z,1.58
2023-04-14T00:28:49.728Z,3.90
2023-04-14T00:31:16.431Z,3.83
2023-04-14T00:33:45.957Z,3.40
2023-04-14T00:36:12.410Z,3.50
2023-04-14T00:38:39.584Z,2.00
2023-04-14T00:41:06.120Z,5.78
2023-04-14T00:43:32.521Z,3.80
2023-04-14T00:45:59.038Z,5.28
2023-04-14T00:48:25.772Z,6.32
2023-04-14T00:50:52.413Z,4.38
2023-04-14T00:53:19.952Z,3.53
2023-04-14T00:55:46.977Z,6.15
2023-04-14T00:58:14.633Z,3.15
2023-04-14T01:00:41.996Z,3.65
2023-04-14T01:03:08.597Z,2.92
2023-04-14T01:05:35.430Z,4.32
2023-04-14T01:08:03.922Z,5.53
2023-04-14T01:10:38.081Z,6.65
2023-04-14T01:13:22.722Z,7.20
2023-04-14T01:16:03.292Z,3.45
2023-04-14T01:18:41.142Z,2.90
2023-04-14T01:21:16.380Z,3.28
2023-04-14T01:24:08.059Z,5.28
2023-04-14T01:26:34.889Z,3.92
2023-04-14T01:29:30.471Z,4.82
2023-04-14T01:32:11.552Z,4.70
2023-04-14T01:34:49.718Z,4.25
2023-04-14T01:37:21.362Z,5.13
2023-04-14T01:39:53.203Z,7.60
2023-04-14T01:42:24.952Z,4.47
2023-04-14T01:44:56.538Z,2.63
2023-04-14T01:47:26.151Z,3.70
2023-04-14T01:49:54.098Z,2.17
2023-04-14T01:52:22.379Z,8.05
2023-04-14T01:54:52.245Z,6.40
2023-04-14T01:57:22.915Z,2.72
2023-04-14T01:59:51.814Z,4.50
2023-04-14T02:02:21.203Z,7.03
2023-04-14T02:04:49.296Z,5.35
2023-04-14T02:07:18.368Z,6.95
2023-04-14T02:09:45.968Z,5.40
2023-04-14T02:12:12.625Z,5.45
2023-04-14T02:14:41.726Z,6.50
2023-04-14T02:17:10.920Z,3.70
2023-04-14T02:19:37.942Z,6.63
2023-04-14T02:22:04.890Z,7.82
2023-04-14T02:24:31.408Z,3.22
2023-04-14T02:27:10.450Z,8.20
2023-04-14T02:29:40.503Z,7.43
2023-04-14T02:32:12.234Z,9.68
2023-04-14T02:34:47.616Z,6.15
2023-04-14T02:37:22.650Z,9.50
2023-04-14T02:39:56.706Z,6.75
2023-04-14T02:42:26.866Z,6.85
2023-04-14T02:45:06.460Z,7.05
2023-04-14T02:47:35.976Z,9.15
2023-04-14T02:50:05.807Z,7.45
2023-04-14T02:52:33.824Z,5.65
2023-04-14T02:55:02.933Z,5.95
2023-04-14T02:57:30.417Z,8.95
2023-04-14T02:59:59.074Z,5.95
2023-04-14T03:02:26.162Z,9.90
2023-04-14T03:04:53.769Z,8.02
2023-04-14T03:07:22.063Z,7.13
2023-04-14T03:09:51.852Z,8.50
2023-04-14T03:12:19.990Z,4.82
2023-04-14T03:14:48.297Z,8.93
2023-04-14T03:17:15.420Z,12.00
2023-04-14T03:19:42.980Z,6.35
2023-04-14T03:22:12.471Z,9.98
2023-04-14T03:24:40.321Z,7.45
2023-04-14T03:27:14.077Z,7.05
2023-04-14T03:29:44.733Z,6.95
2023-04-14T03:32:13.415Z,6.43
2023-04-14T03:34:42.945Z,4.43
2023-04-14T03:37:11.259Z,5.63
2023-04-14T03:39:39.577Z,7.20
2023-04-14T03:42:11.379Z,7.07
2023-04-14T03:44:39.872Z,8.68
2023-04-14T03:47:08.151Z,8.27
2023-04-14T03:49:38.129Z,8.63
2023-04-14T03:52:09.985Z,10.02
2023-04-14T03:54:39.036Z,10.02
2023-04-14T03:57:08.798Z,10.25
2023-04-14T03:59:36.946Z,12.13
2023-04-14T04:02:04.408Z,8.90
2023-04-14T04:04:32.244Z,8.00
2023-04-14T04:06:59.535Z,11.40
2023-04-14T04:09:27.354Z,9.45
2023-04-14T04:11:59.911Z,10.57
2023-04-14T04:14:28.397Z,11.25
2023-04-14T04:16:56.443Z,9.45
2023-04-14T04:19:25.214Z,10.07
2023-04-14T04:21:58.675Z,10.95
2023-04-14T04:27:12.039Z,9.55
2023-04-14T04:29:44.224Z,10.10
2023-04-14T04:35:56.289Z,10.55
2023-04-14T04:41:23.361Z,11.20
2023-04-14T04:43:59.105Z,10.05
2023-04-14T04:46:47.297Z,10.40
2023-04-14T04:49:19.712Z,11.98
2023-04-14T04:53:13.703Z,10.10
2023-04-14T05:04:52.126Z,14.63
2023-04-14T05:07:30.488Z,10.45
2023-04-14T05:07:35.921Z,8.82
2023-04-14T05:12:50.192Z,11.75
2023-04-14T05:15:16.699Z,15.00
2023-04-14T05:17:56.582Z,12.85
2023-04-14T05:23:53.847Z,10.18
2023-04-14T05:26:52.028Z,12.07
2023-04-14T05:30:08.960Z,15.10
2023-04-14T05:32:35.724Z,10.27
2023-04-14T05:35:02.502Z,12.20
2023-04-14T05:41:31.311Z,15.13
2023-04-14T05:44:12.065Z,11.63
2023-04-14T05:46:38.929Z,10.43
2023-04-14T05:49:19.444Z,10.55
2023-04-14T05:51:46.060Z,10.93
2023-04-14T05:54:12.536Z,13.13
2023-04-14T05:56:39.251Z,12.52
2023-04-14T05:59:34.117Z,13.73
2023-04-14T06:02:06.134Z,9.50
2023-04-14T06:04:33.900Z,10.70
2023-04-14T06:10:14.127Z,9.95
2023-04-14T06:16:11.467Z,11.63
2023-04-14T06:18:38.073Z,11.30
2023-04-14T06:24:46.998Z,10.75
2023-04-14T06:27:21.209Z,13.38
2023-04-14T06:32:37.962Z,10.25
2023-04-14T06:35:36.929Z,14.20
2023-04-14T06:38:59.715Z,11.45
2023-04-14T06:41:35.580Z,11.93
2023-04-14T06:44:02.079Z,11.93
2023-04-14T06:46:36.689Z,10.70
2023-04-14T06:49:03.966Z,12.35
2023-04-14T06:52:02.624Z,19.25
2023-04-14T06:57:27.584Z,12.10
2023-04-14T07:03:52.023Z,11.55
2023-04-14T07:06:18.703Z,14.20
2023-04-14T07:08:46.465Z,10.70
2023-04-14T07:11:40.324Z,9.50
2023-04-14T07:14:43.572Z,8.68
2023-04-14T07:17:45.451Z,11.70
2023-04-14T07:21:00.073Z,11.57
2023-04-14T07:23:33.748Z,11.45
2023-04-14T07:26:17.659Z,8.88
2023-04-14T07:29:19.107Z,11.30
2023-04-14T07:31:47.826Z,9.52
2023-04-14T07:34:14.479Z,15.77
2023-04-14T07:36:41.070Z,10.88
2023-04-14T07:39:07.547Z,17.65
2023-04-14T07:41:46.074Z,11.05
2023-04-14T07:44:12.604Z,11.98
2023-04-14T07:46:42.005Z,8.38
2023-04-14T07:49:11.388Z,9.98
2023-04-14T07:51:58.124Z,13.57
2023-04-14T07:54:27.957Z,9.38
2023-04-14T07:56:54.545Z,14.02
2023-04-14T07:59:21.060Z,10.00
2023-04-14T08:01:48.539Z,10.27
2023-04-14T08:04:24.699Z,8.50
2023-04-14T08:06:51.371Z,9.65
2023-04-14T08:09:33.359Z,13.40
2023-04-14T08:12:26.510Z,9.60
2023-04-14T08:14:59.158Z,9.00
2023-04-14T08:17:25.961Z,9.57
2023-04-14T08:19:52.812Z,8.98
2023-04-14T08:22:19.343Z,10.38
2023-04-14T08:24:46.008Z,8.65
2023-04-14T08:27:12.512Z,11.85
2023-04-14T08:29:39.026Z,14.20
2023-04-14T08:32:05.909Z,13.52
2023-04-14T08:34:32.425Z,9.82
2023-04-14T08:37:00.312Z,7.70
2023-04-14T08:39:27.132Z,12.40
2023-04-14T08:41:55.672Z,11.02
2023-04-14T08:44:22.974Z,6.80
2023-04-14T08:46:55.786Z,8.77
2023-04-14T08:49:45.806Z,21.67
2023-04-14T08:52:13.037Z,7.88
2023-04-14T08:54:41.278Z,7.82
2023-04-14T08:57:18.871Z,11.07
2023-04-14T08:59:45.561Z,8.73
2023-04-14T09:02:13.333Z,9.98
2023-04-14T09:04:44.277Z,9.00
2023-04-14T09:07:12.177Z,29.52
2023-04-14T09:09:38.785Z,10.50
2023-04-14T09:12:06.176Z,9.82
2023-04-14T09:14:33.873Z,7.75
2023-04-14T09:17:00.608Z,12.10
2023-04-14T09:19:27.936Z,8.07
2023-04-14T09:21:55.992Z,14.57
2023-04-14T09:24:31.225Z,7.43
2023-04-14T09:26:58.744Z,9.98
2023-04-14T09:29:26.720Z,8.40
2023-04-14T09:31:53.601Z,6.75
2023-04-14T09:34:21.444Z,5.75
2023-04-14T09:37:10.973Z,12.30
2023-04-14T09:39:54.265Z,7.57
2023-04-14T09:45:05.202Z,7.60
2023-04-14T09:47:32.388Z,7.50
2023-04-14T09:50:00.863Z,8.18
2023-04-14T09:52:41.286Z,8.73
2023-04-14T09:55:11.106Z,8.82
2023-04-14T09:57:38.554Z,6.85
2023-04-14T10:00:25.463Z,11.38
2023-04-14T10:02:59.035Z,9.40
2023-04-14T10:05:32.182Z,8.63
2023-04-14T10:08:03.912Z,10.73
2023-04-14T10:10:30.444Z,6.55
2023-04-14T10:12:57.042Z,7.55
2023-04-14T10:15:24.124Z,8.95
2023-04-14T10:17:50.864Z,10.73
2023-04-14T10:20:17.985Z,9.57
2023-04-14T10:22:45.020Z,12.05
2023-04-14T10:25:13.237Z,8.27
2023-04-14T10:27:40.375Z,9.45
2023-04-14T10:30:08.876Z,10.85
2023-04-14T10:32:37.399Z,9.40
2023-04-14T10:35:05.844Z,9.15
2023-04-14T10:37:33.009Z,13.02
2023-04-14T10:40:00.989Z,10.25
2023-04-14T10:42:28.661Z,9.65
2023-04-14T10:45:08.402Z,7.85
2023-04-14T10:47:36.100Z,9.48
2023-04-14T10:50:13.216Z,11.05
2023-04-14T10:52:56.157Z,10.50
2023-04-14T10:55:27.822Z,10.98
2023-04-14T10:58:05.530Z,15.73
2023-04-14T11:00:37.281Z,9.75
2023-04-14T11:03:07.724Z,7.82
2023-04-14T11:05:35.037Z,8.68
2023-04-14T11:08:12.837Z,8.30
2023-04-14T11:10:39.508Z,8.40
2023-04-14T11:13:10.946Z,12.00
2023-04-14T11:15:57.075Z,12.27
2023-04-14T11:18:29.426Z,8.60
2023-04-14T11:21:06.771Z,7.72
2023-04-14T11:23:34.713Z,9.18
2023-04-14T11:26:01.585Z,8.57
2023-04-14T11:28:29.004Z,7.95
2023-04-14T11:30:58.327Z,11.38
2023-04-14T11:33:37.319Z,7.50
2023-04-14T11:36:07.072Z,9.20
2023-04-14T11:38:40.217Z,8.57
2023-04-14T11:41:07.096Z,6.75
2023-04-14T11:43:33.609Z,10.82
2023-04-14T11:46:03.001Z,8.82
2023-04-14T11:48:30.859Z,7.20
2023-04-14T11:51:02.582Z,12.95
2023-04-14T11:53:29.208Z,12.33
2023-04-14T11:55:57.386Z,8.00
2023-04-14T11:58:25.754Z,7.72
2023-04-14T12:00:55.936Z,8.43
2023-04-14T12:03:27.744Z,8.60
2023-04-14T12:06:01.318Z,5.20
2023-04-14T12:08:29.974Z,7.85
2023-04-14T12:10:57.530Z,8.15
2023-04-14T12:13:24.628Z,6.05
2023-04-14T12:15:51.310Z,7.13
2023-04-14T12:20:46.292Z,9.30
2023-04-14T12:23:12.767Z,10.63
2023-04-14T12:25:39.754Z,8.27
2023-04-14T12:28:06.628Z,9.27
2023-04-14T12:30:34.049Z,8.35
2023-04-14T12:33:08.546Z,6.82
2023-04-14T12:35:35.075Z,8.77
2023-04-14T12:38:01.543Z,7.43
2023-04-14T12:40:39.237Z,6.50
2023-04-14T12:43:06.108Z,4.55
2023-04-14T12:45:45.834Z,6.57
2023-04-14T12:48:13.582Z,9.27
2023-04-14T12:50:40.160Z,6.18
2023-04-14T12:53:26.208Z,8.40
2023-04-14T12:56:09.080Z,8.75
2023-04-14T12:58:40.011Z,13.68
2023-04-14T13:01:07.883Z,6.75
2023-04-14T13:03:42.856Z,7.13
2023-04-14T13:06:11.205Z,8.75
2023-04-14T13:08:38.024Z,8.38
2023-04-14T13:11:04.549Z,10.52
2023-04-14T13:13:30.925Z,7.60
2023-04-14T13:16:14.159Z,5.60
2023-04-14T13:18:43.154Z,5.03
2023-04-14T13:21:09.828Z,7.55
2023-04-14T13:23:36.610Z,6.63
2023-04-14T13:26:03.674Z,6.97
2023-04-14T13:28:30.206Z,7.13
2023-04-14T13:30:57.680Z,9.65
2023-04-14T13:33:25.634Z,10.40
2023-04-14T13:35:53.009Z,7.05
2023-04-14T13:38:19.323Z,8.63
2023-04-14T13:40:47.531Z,4.38
2023-04-14T13:43:16.392Z,5.63
2023-04-14T13:45:42.861Z,8.55
2023-04-14T13:48:09.243Z,7.75
2023-04-14T13:50:35.741Z,7.00
2023-04-14T13:53:02.086Z,8.70
2023-04-14T13:55:28.463Z,7.85
2023-04-14T13:57:55.232Z,6.70
2023-04-14T14:00:21.741Z,5.28
2023-04-14T14:02:48.186Z,6.35
2023-04-14T14:05:15.506Z,6.70
2023-04-14T14:07:43.347Z,6.90
2023-04-14T14:10:10.712Z,6.00
2023-04-14T14:12:37.590Z,6.90
2023-04-14T14:15:05.401Z,5.88
2023-04-14T14:17:31.974Z,7.93
2023-04-14T14:19:58.885Z,6.55
2023-04-14T14:22:25.647Z,8.48
2023-04-14T14:24:58.551Z,9.63
2023-04-14T14:27:31.583Z,8.93
2023-04-14T14:29:57.958Z,6.57
2023-04-14T14:32:24.284Z,5.80
2023-04-14T14:34:50.681Z,6.18
2023-04-14T14:37:18.160Z,7.88
2023-04-14T14:39:44.861Z,5.07
2023-04-14T14:42:11.397Z,5.68
2023-04-14T14:44:38.040Z,6.55
2023-04-14T14:47:05.326Z,7.28
2023-04-14T14:49:32.115Z,6.32
2023-04-14T14:51:58.566Z,6.72
2023-04-14T14:54:24.833Z,5.28
2023-04-14T14:56:51.156Z,6.10
2023-04-14T14:59:17.560Z,8.88
2023-04-14T15:01:44.689Z,4.47
2023-04-14T15:04:12.012Z,6.53
2023-04-14T15:06:38.338Z,4.97
2023-04-14T15:09:05.378Z,7.30
2023-04-14T15:11:31.818Z,5.45
2023-04-14T15:13:58.606Z,7.97
2023-04-14T15:16:25.070Z,7.55
2023-04-14T15:18:51.472Z,9.15
2023-04-14T15:21:17.803Z,5.20
2023-04-14T15:23:45.459Z,6.85
2023-04-14T15:26:14.678Z,5.97
2023-04-14T15:28:41.146Z,6.28
2023-04-14T15:31:08.289Z,5.85
2023-04-14T15:33:34.776Z,4.93
2023-04-14T15:36:01.513Z,6.13
2023-04-14T15:38:27.991Z,5.63
2023-04-14T15:40:54.394Z,4.13
2023-04-14T15:43:21.437Z,5.78
2023-04-14T15:45:47.764Z,4.45
2023-04-14T15:48:14.088Z,12.15
2023-04-14T15:50:44.974Z,4.68
2023-04-14T15:53:12.165Z,4.63
2023-04-14T15:55:39.731Z,9.07
2023-04-14T15:58:06.497Z,6.72
2023-04-14T16:00:33.154Z,4.25
2023-04-14T16:03:01.793Z,2.65
2023-04-14T16:05:28.569Z,4.63
2023-04-14T16:07:55.347Z,3.40
2023-04-14T16:10:21.663Z,3.92
2023-04-14T16:12:48.665Z,4.80
2023-04-14T16:15:17.405Z,4.90
2023-04-14T16:17:44.017Z,5.35
2023-04-14T16:20:12.417Z,3.42
2023-04-14T16:22:38.887Z,5.63
2023-04-14T16:25:06.798Z,4.75
2023-04-14T16:27:34.031Z,3.40
2023-04-14T16:30:00.653Z,4.05
2023-04-14T16:32:42.854Z,5.30
2023-04-14T16:35:09.706Z,4.93
2023-04-14T16:37:36.755Z,5.60
2023-04-14T16:43:56.406Z,4.18
2023-04-14T16:46:24.322Z,5.73
2023-04-14T16:48:51.642Z,3.90
2023-04-14T16:51:18.287Z,8.45
2023-04-14T16:53:44.841Z,6.88
2023-04-14T16:59:57.787Z,5.53
2023-04-14T17:02:24.538Z,6.10
2023-04-14T17:04:51.300Z,4.28
2023-04-14T17:07:27.449Z,5.05
2023-04-14T17:09:54.211Z,4.65
2023-04-14T17:12:39.146Z,6.10
2023-04-14T17:15:06.701Z,5.88
2023-04-14T17:17:33.828Z,8.25
2023-04-14T17:20:00.624Z,4.50
2023-04-14T17:22:27.620Z,3.92
2023-04-14T17:24:54.610Z,6.47
2023-04-14T17:27:21.345Z,3.58
2023-04-14T17:29:48.417Z,3.10
2023-04-14T17:32:15.016Z,3.70
2023-04-14T17:34:41.700Z,6.35
2023-04-14T17:37:08.897Z,4.20
2023-04-14T17:39:35.397Z,6.25
2023-04-14T17:42:02.163Z,3.10
2023-04-14T17:44:34.650Z,3.55
2023-04-14T17:47:01.662Z,4.78
2023-04-14T17:49:28.369Z,5.43
2023-04-14T17:51:55.236Z,2.40
2023-04-14T17:54:22.734Z,4.18
2023-04-14T17:56:50.410Z,5.03
2023-04-14T17:59:17.525Z,5.90
2023-04-14T18:01:44.156Z,4.25
2023-04-14T18:04:10.991Z,4.55
2023-04-14T18:06:37.571Z,3.75
2023-04-14T18:09:04.140Z,3.47
2023-04-14T18:11:31.524Z,3.67
2023-04-14T18:13:58.240Z,4.30
2023-04-14T18:16:25.102Z,4.00
2023-04-14T18:18:57.480Z,2.60
2023-04-14T18:26:34.460Z,2.92
2023-04-14T18:29:01.514Z,5.70
2023-04-14T18:31:28.388Z,1.98
2023-04-14T18:33:55.173Z,5.80
2023-04-14T18:36:21.749Z,3.83
2023-04-14T18:38:48.236Z,3.17
2023-04-14T18:41:14.821Z,2.15
2023-04-14T18:43:41.320Z,2.58
2023-04-14T18:46:08.331Z,3.55
2023-04-14T18:48:34.971Z,2.75
2023-04-14T18:51:04.278Z,4.78
2023-04-14T18:53:31.818Z,1.95
2023-04-14T18:55:58.499Z,5.93
2023-04-14T18:58:25.494Z,3.20
2023-04-14T19:00:51.894Z,2.42
2023-04-14T19:03:18.669Z,6.55
2023-04-14T19:05:45.246Z,4.70
2023-04-14T19:08:11.782Z,5.30
2023-04-14T19:10:39.832Z,4.88
2023-04-14T19:13:06.598Z,2.53
2023-04-14T19:15:33.209Z,3.05
2023-04-14T19:17:59.741Z,3.25
2023-04-14T19:20:26.759Z,5.93
2023-04-14T19:22:53.352Z,4.88
2023-04-14T19:25:20.343Z,5.05
2023-04-14T19:27:46.867Z,3.38
2023-04-14T19:30:13.848Z,3.20
2023-04-14T19:32:41.135Z,4.72
2023-04-14T19:35:08.751Z,8.02
2023-04-14T19:37:35.964Z,4.53
2023-04-14T19:40:06.190Z,4.07
2023-04-14T19:42:33.399Z,2.70
2023-04-14T19:45:00.545Z,3.65
2023-04-14T19:47:27.515Z,5.30
2023-04-14T19:49:55.136Z,3.58
2023-04-14T19:52:22.229Z,3.47
2023-04-14T19:54:48.817Z,3.05
2023-04-14T19:57:15.560Z,5.10
2023-04-14T19:59:42.494Z,5.95
2023-04-14T20:02:10.625Z,9.55
2023-04-14T20:04:37.932Z,3.05
2023-04-14T20:07:05.084Z,5.55
2023-04-14T20:09:31.884Z,5.57
2023-04-14T20:12:00.378Z,5.03
2023-04-14T20:14:28.059Z,6.20
2023-04-14T20:16:54.699Z,5.93
2023-04-14T20:19:21.312Z,3.40
2023-04-14T20:21:48.360Z,7.30
2023-04-14T20:24:14.788Z,6.53
2023-04-14T20:26:43.575Z,4.93
2023-04-14T20:29:10.070Z,4.55
2023-04-14T20:31:36.818Z,5.28
2023-04-14T20:34:04.232Z,3.60
2023-04-14T20:36:35.566Z,6.63
2023-04-14T20:39:05.976Z,6.55
2023-04-14T20:41:36.373Z,4.05
2023-04-14T20:44:06.372Z,4.85
2023-04-14T20:46:33.520Z,4.28
2023-04-14T20:49:01.355Z,6.57
2023-04-14T20:51:28.856Z,4.22
2023-04-14T20:53:56.825Z,4.00
2023-04-14T20:56:27.160Z,5.63
2023-04-14T20:58:53.797Z,5.18
2023-04-14T21:01:20.506Z,5.15
2023-04-14T21:03:47.160Z,7.82
2023-04-14T21:06:13.731Z,6.93
2023-04-14T21:08:40.403Z,4.45
2023-04-14T21:11:16.319Z,6.60
2023-04-14T21:15:29.030Z,4.88
2023-04-14T21:16:34.201Z,5.35
2023-04-14T21:19:02.543Z,6.18
2023-04-14T21:21:29.356Z,4.55
2023-04-14T21:23:55.831Z,7.53
2023-04-14T21:26:23.804Z,10.13
2023-04-14T21:28:50.824Z,7.22
2023-04-14T21:31:17.558Z,7.15
2023-04-14T21:33:44.177Z,5.57
2023-04-14T21:36:10.937Z,5.82
2023-04-14T21:38:38.450Z,6.40
2023-04-14T21:41:05.819Z,5.85
2023-04-14T21:43:32.442Z,7.30
2023-04-14T21:45:59.171Z,5.22
2023-04-14T21:48:25.979Z,4.80
2023-04-14T21:50:52.529Z,5.30
2023-04-14T21:53:20.356Z,6.60
2023-04-14T21:55:47.347Z,7.28
2023-04-14T21:58:31.137Z,10.57
2023-04-14T22:00:57.600Z,5.00
2023-04-14T22:03:24.370Z,6.72
2023-04-14T22:05:53.229Z,5.97
2023-04-14T22:08:19.762Z,7.50
2023-04-14T22:10:47.346Z,7.15
2023-04-14T22:13:14.863Z,7.18
2023-04-14T22:15:44.814Z,5.95
2023-04-14T22:18:11.612Z,5.78
2023-04-14T22:20:39.236Z,6.07
2023-04-14T22:23:06.033Z,5.47
2023-04-14T22:25:33.258Z,5.22
2023-04-14T22:30:33.253Z,4.40
2023-04-14T22:32:59.801Z,4.60
2023-04-14T22:35:26.354Z,6.18
2023-04-14T22:37:52.759Z,5.47
2023-04-14T22:40:19.359Z,8.27
2023-04-14T22:42:46.403Z,4.90
2023-04-14T22:45:13.501Z,4.93
2023-04-14T22:47:40.196Z,5.20
2023-04-14T22:50:07.510Z,6.45
2023-04-14T22:52:33.922Z,5.95
2023-04-14T22:55:00.288Z,6.03
2023-04-14T22:57:27.585Z,5.45
2023-04-14T22:59:54.136Z,5.72
2023-04-14T23:02:21.627Z,6.25
2023-04-14T23:04:48.349Z,5.45
2023-04-14T23:07:15.462Z,7.80
2023-04-14T23:09:41.856Z,5.75
2023-04-14T23:12:08.315Z,5.45
2023-04-14T23:14:34.776Z,4.78
2023-04-14T23:17:01.238Z,4.63
2023-04-14T23:19:27.682Z,6.07
2023-04-14T23:21:54.133Z,5.45
2023-04-14T23:24:22.300Z,6.82
2023-04-14T23:26:48.742Z,5.57
2023-04-14T23:29:15.164Z,6.47
2023-04-14T23:31:41.693Z,6.05
2023-04-14T23:34:10.021Z,5.60
2023-04-14T23:36:37.565Z,6.22
2023-04-14T23:39:04.154Z,6.25
2023-04-14T23:41:30.788Z,7.10
2023-04-14T23:43:57.165Z,5.93
2023-04-14T23:46:23.626Z,6.90
2023-04-14T23:48:51.335Z,6.80
2023-04-14T23:51:20.085Z,7.20
2023-04-14T23:53:47.413Z,5.72
2023-04-14T23:56:13.817Z,7.60
2023-04-14T23:58:40.233Z,5.70
